Pitt Greenville Airport
KPGV : now visible

Airfield :











YOU CAN JOIN US ON...

 
LOGIN :

Register | Disclaimer

   EN    FR    IT 

 









Legend :    VFR   Marginal VFR   IFR   Intensive IFR   Very Intensive IFR
Visi :
Ceiling :
>= 8 km
>= 3000ft
5 to 8 km
1000 to 3000 ft
1500m to 5 km
500 to 1000 ft
800 to 1500m
200 to 500 ft
< 800m
< 200 ft
Symbols :   Thunderstorms  Fog  Heavy snow  Heavy precipitations  Wind > 20 kt






- Airport Elevation : 26 ft


KPGV - Pitt Greenville

CURRENT METAR :
  • 220025Z AUTO 05005KT 10SM DZ BKN013 BKN018 OVC035 10/10 A2995 RMK AO2

EXPIRED METARs :
  • 220005Z AUTO 04005KT 10SM DZ SCT010 BKN017 OVC050 10/10 A2995 RMK AO2
  • 212355Z AUTO 03005KT 10SM DZ SCT012 BKN017 OVC095 10/10 A2995 RMK AO2 P0002
  • 212335Z AUTO 02007KT 10SM DZ SCT011 BKN019 OVC095 10/10 A2995 RMK AO2 P0001
  • 212325Z AUTO 03010KT 10SM DZ SCT011 OVC019 10/10 A2995 RMK AO2 P0001
  • 212255Z AUTO 01010KT 10SM -RA BKN011 OVC018 11/11 A2995 RMK AO2
  • 212245Z AUTO 01009KT 10SM -DZ BKN011 OVC018 11/11 A2995 RMK AO2
  • 212225Z AUTO 03011KT 10SM -DZ BKN014 BKN047 OVC100 11/11 A2993 RMK AO2
  • 212205Z AUTO 02008KT 10SM DZ SCT014 SCT035 OVC050 11/11 A2995 RMK AO2
  • 212125Z AUTO 02007KT 10SM RA OVC007 11/11 A2994 RMK AO2 P0001
  • 212105Z AUTO 03006KT 10SM DZ OVC009 11/11 A2994 RMK AO2 P0001
  • 212045Z AUTO 03008KT 10SM RA OVC009 11/11 A2994 RMK AO2 P0001
  • 212035Z AUTO 02008KT 10SM -RA BKN009 OVC014 11/11 A2994 RMK AO2 P0001
  • 212015Z AUTO 02009KT 10SM BKN009 OVC014 11/11 A2994 RMK AO2
  • 212005Z AUTO 04010G14KT 10SM BKN009 OVC014 11/11 A2993 RMK AO2
  • 211955Z AUTO 03011KT 10SM -RA BKN009 BKN014 OVC049 11/11 A2993 RMK AO2 P0002

TAF KPGV
Valid from the 22 at 00:00 until the 23 at 00:00 UTC


212352Z 2200/2224 02007KT 6SM -RA OVC008
TEMPO 2200/2202 OVC010
FM220300 03005KT P6SM OVC008
FM220600 02005KT P6SM OVC020
FM220900 01006KT P6SM OVC050
FM221500 01009KT P6SM BKN050 AMD LTD TO CLD VIS AND WIND
KZDC FIR / North America



MET'MAP, your aeronautical weather chart ! - Copyright ORBIFLY December 2007 - Disclaimer

ORBIFLY MET'MAP TEAM :

Programming & Development : Alexandra Zaïnal
Original concept : Baudouin d'Aumeries
Technical & hardware support : Manuel Goepfert
Assistance : Marc-Olivier Méhu




SOURCES & CREDITS :

   NOAA       Earth
Advisory